»·PEaware :: N51151 KW36-KHIO

N51151 :: KW36-KHIO

FLIGHT INFORMATION

Flight Status: Arrived
Operator: Privately registered:
United States
More flights under this callsign
Pilot: Alan J. (5709)
Aircraft: GRUMMAN AERO G-73 MALLARD
(G73T)
More flights by this aircraft type
Origin: KW36
Destination: KHIO Portland-Hillsboro
United States
More flights between these airports :: More routes between these airports
Route: SEA V495 BTG
File this flight plan on PilotEdge
Remarks:
Altitude:
(Current/Filed)
10,000ft
Speed:
(Current/Filed)
190kts
Departed: 06-Jun-20 03:01 PM
Arrived: 06-Jun-20 04:03 PM
Distance/Time
Traveled:
Not Available
Distance/Time
To Go:
Arrived

Flight Plot

Page will automatically refresh every two minutes.

Flight plan parsing failed; only flown route is shown


Map Options




Map Legend


Flown Route
Filed Route
Departure Airport
Arrival Airport
Navaid (VOR, NDB)
Fix

Horizontal Profiles

Position Reports

Time Latitude Longitude Heading Altitude Ground
Speed
06-Jun-20 14:54 47.499810 -122.217911 13 31ft 0kts
06-Jun-20 14:55 47.500039 -122.217817 21 31ft 0kts
06-Jun-20 14:56 47.500039 -122.217816 21 31ft 0kts
06-Jun-20 14:57 47.500040 -122.217816 21 31ft 0kts
06-Jun-20 14:58 47.501699 -122.217688 350 21ft 2kts
06-Jun-20 14:59 47.502462 -122.220470 0 21ft 10kts
06-Jun-20 15:00 47.502441 -122.201352 154 334ft 75kts
06-Jun-20 15:01 47.481792 -122.219588 223 1265ft 89kts
06-Jun-20 15:02 47.466422 -122.253190 228 2210ft 99kts
06-Jun-20 15:03 47.437202 -122.287580 208 2807ft 150kts
06-Jun-20 15:04 47.396904 -122.309629 193 4048ft 150kts
06-Jun-20 15:05 47.355425 -122.320308 188 5532ft 149kts
06-Jun-20 15:06 47.315190 -122.327135 188 7018ft 143kts
06-Jun-20 15:07 47.275490 -122.333334 188 8509ft 144kts
06-Jun-20 15:08 47.235435 -122.339963 189 9914ft 151kts
06-Jun-20 15:09 47.187059 -122.348599 189 10018ft 190kts
06-Jun-20 15:10 47.133666 -122.357637 189 10015ft 190kts
06-Jun-20 15:11 47.081882 -122.366436 189 10018ft 186kts
06-Jun-20 15:12 47.030251 -122.375084 189 10016ft 186kts
06-Jun-20 15:13 46.978616 -122.383959 188 10015ft 186kts
06-Jun-20 15:14 46.926956 -122.392639 189 10015ft 186kts
06-Jun-20 15:15 46.875277 -122.401131 189 10016ft 186kts
06-Jun-20 15:16 46.823690 -122.409555 189 10020ft 186kts
06-Jun-20 15:17 46.772145 -122.418037 189 10020ft 186kts
06-Jun-20 15:18 46.720369 -122.426524 189 10022ft 186kts
06-Jun-20 15:19 46.668760 -122.434899 189 10027ft 186kts
06-Jun-20 15:20 46.617213 -122.443718 189 10031ft 186kts
06-Jun-20 15:21 46.565704 -122.452168 190 10035ft 186kts
06-Jun-20 15:22 46.514089 -122.460645 190 10038ft 186kts
06-Jun-20 15:23 46.462337 -122.469268 189 10039ft 187kts
06-Jun-20 15:24 46.410693 -122.477961 189 10042ft 187kts
06-Jun-20 15:25 46.359062 -122.486603 190 10045ft 186kts
06-Jun-20 15:26 46.307284 -122.495048 190 10048ft 186kts
06-Jun-20 15:27 46.255640 -122.503536 190 10051ft 186kts
06-Jun-20 15:28 46.203997 -122.512234 190 10054ft 186kts
06-Jun-20 15:29 46.152407 -122.520652 190 10055ft 186kts
06-Jun-20 15:30 46.100649 -122.529058 190 10055ft 187kts
06-Jun-20 15:31 46.049049 -122.537725 189 10054ft 187kts
06-Jun-20 15:32 45.997377 -122.546179 190 10052ft 187kts
06-Jun-20 15:33 45.945201 -122.554705 190 9839ft 193kts
06-Jun-20 15:34 45.894772 -122.562376 190 8624ft 163kts
06-Jun-20 15:35 45.851933 -122.569065 190 7319ft 150kts
06-Jun-20 15:36 45.810725 -122.575941 190 6017ft 147kts
06-Jun-20 15:37 45.771842 -122.587557 206 5050ft 130kts
06-Jun-20 15:38 45.741938 -122.612980 214 4850ft 134kts
06-Jun-20 15:39 45.728585 -122.663353 238 4123ft 132kts
06-Jun-20 15:40 45.718524 -122.706592 249 4026ft 101kts
06-Jun-20 15:41 45.708574 -122.745649 248 4045ft 110kts
06-Jun-20 15:42 45.697733 -122.788212 248 4038ft 115kts
06-Jun-20 15:43 45.686763 -122.831459 248 4035ft 115kts
06-Jun-20 15:44 45.675706 -122.874709 248 4034ft 116kts
06-Jun-20 15:45 45.664698 -122.917962 248 4033ft 115kts
06-Jun-20 15:46 45.653688 -122.961043 247 4030ft 115kts
06-Jun-20 15:47 45.642667 -123.004229 247 4029ft 115kts
06-Jun-20 15:48 45.637299 -123.047605 304 4017ft 122kts
06-Jun-20 15:49 45.665095 -123.078240 318 3765ft 132kts
06-Jun-20 15:50 45.688829 -123.110410 279 3623ft 100kts
06-Jun-20 15:51 45.695205 -123.147509 277 3631ft 93kts
06-Jun-20 15:52 45.713629 -123.153699 84 3641ft 111kts
06-Jun-20 15:53 45.697920 -123.118887 146 3405ft 120kts
06-Jun-20 15:54 45.672937 -123.090351 146 3218ft 104kts
06-Jun-20 15:55 45.652162 -123.065136 145 3224ft 94kts
06-Jun-20 15:56 45.631278 -123.039783 145 3104ft 108kts
06-Jun-20 15:57 45.608575 -123.013814 151 2222ft 85kts
06-Jun-20 15:58 45.591705 -122.988420 127 1644ft 98kts
06-Jun-20 15:59 45.579477 -122.956736 122 1586ft 95kts
06-Jun-20 16:00 45.564618 -122.929455 159 916ft 80kts
06-Jun-20 16:01 45.545687 -122.938115 225 321ft 69kts
06-Jun-20 16:02 45.535788 -122.949907 220 212ft 24kts
06-Jun-20 16:03 45.533972 -122.950395 75 212ft 5kts
06-Jun-20 16:04 45.533228 -122.949827 165 212ft 0kts
06-Jun-20 16:05 45.533223 -122.949826 165 212ft 0kts
06-Jun-20 16:06 45.533222 -122.949825 165 212ft 0kts
06-Jun-20 16:07 45.533222 -122.949825 165 212ft 0kts

Navigation Log

Ident Type
Flight plan parsing failed, navigation log unavailable